sensor_id;sensor_type;location;lat;lon;timestamp;P1;durP1;ratioP1;P2;durP2;ratioP2
7773;SDS011;3931;42.260;23.116;2022-10-31T00:01:18;21.63;;;8.30;;
7773;SDS011;3931;42.260;23.116;2022-10-31T00:03:46;21.30;;;6.77;;
7773;SDS011;3931;42.260;23.116;2022-10-31T00:06:13;15.20;;;6.43;;
7773;SDS011;3931;42.260;23.116;2022-10-31T00:08:39;13.00;;;6.07;;
7773;SDS011;3931;42.260;23.116;2022-10-31T00:11:08;19.07;;;5.90;;
7773;SDS011;3931;42.260;23.116;2022-10-31T00:13:34;12.97;;;6.10;;
7773;SDS011;3931;42.260;23.116;2022-10-31T00:16:01;16.57;;;5.20;;
7773;SDS011;3931;42.260;23.116;2022-10-31T00:18:28;12.90;;;6.20;;
7773;SDS011;3931;42.260;23.116;2022-10-31T00:20:58;13.27;;;5.60;;
7773;SDS011;3931;42.260;23.116;2022-10-31T00:23:25;9.20;;;4.73;;
7773;SDS011;3931;42.260;23.116;2022-10-31T00:25:51;13.63;;;5.50;;
7773;SDS011;3931;42.260;23.116;2022-10-31T00:28:17;10.67;;;5.87;;
7773;SDS011;3931;42.260;23.116;2022-10-31T00:30:43;10.83;;;5.30;;
7773;SDS011;3931;42.260;23.116;2022-10-31T00:33:10;13.23;;;4.57;;
7773;SDS011;3931;42.260;23.116;2022-10-31T00:35:36;7.50;;;4.63;;
7773;SDS011;3931;42.260;23.116;2022-10-31T00:38:02;14.63;;;4.70;;
7773;SDS011;3931;42.260;23.116;2022-10-31T00:40:28;12.93;;;4.20;;
7773;SDS011;3931;42.260;23.116;2022-10-31T00:42:54;12.43;;;5.43;;
7773;SDS011;3931;42.260;23.116;2022-10-31T00:45:20;8.73;;;4.00;;
7773;SDS011;3931;42.260;23.116;2022-10-31T00:47:46;12.60;;;4.53;;
7773;SDS011;3931;42.260;23.116;2022-10-31T00:50:13;10.47;;;4.43;;
7773;SDS011;3931;42.260;23.116;2022-10-31T00:52:39;11.23;;;4.67;;
7773;SDS011;3931;42.260;23.116;2022-10-31T00:55:06;11.03;;;5.73;;
7773;SDS011;3931;42.260;23.116;2022-10-31T00:57:32;11.17;;;4.80;;
7773;SDS011;3931;42.260;23.116;2022-10-31T00:59:58;11.83;;;6.10;;
7773;SDS011;3931;42.260;23.116;2022-10-31T01:02:24;10.83;;;5.57;;
7773;SDS011;3931;42.260;23.116;2022-10-31T01:04:50;10.80;;;5.30;;
7773;SDS011;3931;42.260;23.116;2022-10-31T01:07:17;9.80;;;5.17;;
7773;SDS011;3931;42.260;23.116;2022-10-31T01:09:43;10.77;;;5.00;;
7773;SDS011;3931;42.260;23.116;2022-10-31T01:12:09;13.30;;;5.30;;
7773;SDS011;3931;42.260;23.116;2022-10-31T01:14:35;9.60;;;4.50;;
7773;SDS011;3931;42.260;23.116;2022-10-31T01:17:01;7.80;;;4.63;;
7773;SDS011;3931;42.260;23.116;2022-10-31T01:19:27;6.87;;;4.13;;
7773;SDS011;3931;42.260;23.116;2022-10-31T01:21:54;7.77;;;4.47;;
7773;SDS011;3931;42.260;23.116;2022-10-31T01:24:21;16.87;;;4.40;;
7773;SDS011;3931;42.260;23.116;2022-10-31T01:26:47;16.90;;;4.90;;
7773;SDS011;3931;42.260;23.116;2022-10-31T01:29:13;12.27;;;4.37;;
7773;SDS011;3931;42.260;23.116;2022-10-31T01:31:39;9.87;;;4.70;;
7773;SDS011;3931;42.260;23.116;2022-10-31T01:34:05;8.77;;;4.00;;
7773;SDS011;3931;42.260;23.116;2022-10-31T01:36:33;8.03;;;4.30;;
7773;SDS011;3931;42.260;23.116;2022-10-31T01:39:03;7.33;;;4.57;;
7773;SDS011;3931;42.260;23.116;2022-10-31T01:41:32;8.50;;;5.27;;
7773;SDS011;3931;42.260;23.116;2022-10-31T01:44:00;10.50;;;4.60;;
7773;SDS011;3931;42.260;23.116;2022-10-31T01:46:29;11.60;;;4.30;;
7773;SDS011;3931;42.260;23.116;2022-10-31T01:48:58;11.97;;;5.13;;
7773;SDS011;3931;42.260;23.116;2022-10-31T01:51:28;7.40;;;4.07;;
7773;SDS011;3931;42.260;23.116;2022-10-31T01:54:00;14.30;;;5.33;;
7773;SDS011;3931;42.260;23.116;2022-10-31T01:56:29;10.43;;;5.43;;
7773;SDS011;3931;42.260;23.116;2022-10-31T01:58:59;9.93;;;4.20;;
7773;SDS011;3931;42.260;23.116;2022-10-31T02:01:30;8.87;;;4.23;;
7773;SDS011;3931;42.260;23.116;2022-10-31T02:03:57;26.83;;;4.43;;
7773;SDS011;3931;42.260;23.116;2022-10-31T02:06:26;7.47;;;4.37;;
7773;SDS011;3931;42.260;23.116;2022-10-31T02:08:57;7.10;;;4.40;;
7773;SDS011;3931;42.260;23.116;2022-10-31T02:11:26;10.30;;;4.20;;
7773;SDS011;3931;42.260;23.116;2022-10-31T02:13:54;11.83;;;4.40;;
7773;SDS011;3931;42.260;23.116;2022-10-31T02:16:21;10.73;;;4.33;;
7773;SDS011;3931;42.260;23.116;2022-10-31T02:18:47;10.20;;;3.93;;
7773;SDS011;3931;42.260;23.116;2022-10-31T02:21:15;7.40;;;4.20;;
7773;SDS011;3931;42.260;23.116;2022-10-31T02:26:52;14.27;;;4.97;;
7773;SDS011;3931;42.260;23.116;2022-10-31T02:29:43;10.23;;;4.33;;
7773;SDS011;3931;42.260;23.116;2022-10-31T02:32:29;7.97;;;4.60;;
7773;SDS011;3931;42.260;23.116;2022-10-31T02:35:05;10.40;;;4.57;;
7773;SDS011;3931;42.260;23.116;2022-10-31T02:37:40;10.83;;;4.47;;
7773;SDS011;3931;42.260;23.116;2022-10-31T02:40:15;10.67;;;4.20;;
7773;SDS011;3931;42.260;23.116;2022-10-31T02:42:52;21.13;;;4.33;;
7773;SDS011;3931;42.260;23.116;2022-10-31T02:45:26;9.90;;;3.57;;
7773;SDS011;3931;42.260;23.116;2022-10-31T02:47:58;13.10;;;4.13;;
7773;SDS011;3931;42.260;23.116;2022-10-31T02:50:28;12.10;;;4.30;;
7773;SDS011;3931;42.260;23.116;2022-10-31T02:52:56;5.33;;;3.63;;
7773;SDS011;3931;42.260;23.116;2022-10-31T02:58:12;8.40;;;4.20;;
7773;SDS011;3931;42.260;23.116;2022-10-31T03:00:42;12.20;;;4.47;;
7773;SDS011;3931;42.260;23.116;2022-10-31T03:03:19;6.60;;;3.70;;
7773;SDS011;3931;42.260;23.116;2022-10-31T03:05:52;10.80;;;4.03;;
7773;SDS011;3931;42.260;23.116;2022-10-31T03:08:27;7.40;;;4.57;;
7773;SDS011;3931;42.260;23.116;2022-10-31T03:10:59;10.00;;;3.87;;
7773;SDS011;3931;42.260;23.116;2022-10-31T03:13:29;8.80;;;4.37;;
7773;SDS011;3931;42.260;23.116;2022-10-31T03:16:05;8.97;;;4.83;;
7773;SDS011;3931;42.260;23.116;2022-10-31T03:18:37;13.20;;;4.93;;
7773;SDS011;3931;42.260;23.116;2022-10-31T03:21:06;9.13;;;4.50;;
7773;SDS011;3931;42.260;23.116;2022-10-31T03:23:37;9.53;;;3.90;;
7773;SDS011;3931;42.260;23.116;2022-10-31T03:26:05;4.47;;;3.50;;
7773;SDS011;3931;42.260;23.116;2022-10-31T03:28:35;9.03;;;3.93;;
7773;SDS011;3931;42.260;23.116;2022-10-31T03:31:06;14.10;;;4.70;;
7773;SDS011;3931;42.260;23.116;2022-10-31T03:33:34;13.93;;;5.17;;
7773;SDS011;3931;42.260;23.116;2022-10-31T03:36:05;11.43;;;4.00;;
7773;SDS011;3931;42.260;23.116;2022-10-31T03:38:36;13.43;;;4.40;;
7773;SDS011;3931;42.260;23.116;2022-10-31T03:41:05;8.80;;;3.93;;
7773;SDS011;3931;42.260;23.116;2022-10-31T03:43:36;28.67;;;13.13;;
7773;SDS011;3931;42.260;23.116;2022-10-31T03:46:06;26.50;;;16.80;;
7773;SDS011;3931;42.260;23.116;2022-10-31T03:48:32;9.50;;;5.00;;
7773;SDS011;3931;42.260;23.116;2022-10-31T03:51:01;8.27;;;4.37;;
7773;SDS011;3931;42.260;23.116;2022-10-31T03:53:33;7.50;;;3.70;;
7773;SDS011;3931;42.260;23.116;2022-10-31T03:56:06;15.40;;;3.83;;
7773;SDS011;3931;42.260;23.116;2022-10-31T03:58:37;9.40;;;3.70;;
7773;SDS011;3931;42.260;23.116;2022-10-31T04:01:09;7.93;;;3.70;;
7773;SDS011;3931;42.260;23.116;2022-10-31T04:03:41;11.70;;;4.10;;
7773;SDS011;3931;42.260;23.116;2022-10-31T04:06:10;9.20;;;3.73;;
7773;SDS011;3931;42.260;23.116;2022-10-31T04:08:41;9.70;;;3.67;;
7773;SDS011;3931;42.260;23.116;2022-10-31T04:11:11;13.37;;;3.97;;
7773;SDS011;3931;42.260;23.116;2022-10-31T04:13:39;12.37;;;4.10;;
7773;SDS011;3931;42.260;23.116;2022-10-31T04:16:08;6.97;;;4.17;;
7773;SDS011;3931;42.260;23.116;2022-10-31T04:18:35;13.60;;;4.23;;
7773;SDS011;3931;42.260;23.116;2022-10-31T04:21:02;12.50;;;4.90;;
7773;SDS011;3931;42.260;23.116;2022-10-31T04:23:30;15.20;;;4.80;;
7773;SDS011;3931;42.260;23.116;2022-10-31T04:25:57;10.17;;;3.97;;
7773;SDS011;3931;42.260;23.116;2022-10-31T04:28:23;9.40;;;4.70;;
7773;SDS011;3931;42.260;23.116;2022-10-31T04:30:49;6.60;;;4.10;;
7773;SDS011;3931;42.260;23.116;2022-10-31T04:33:16;9.73;;;5.17;;
7773;SDS011;3931;42.260;23.116;2022-10-31T04:35:42;10.83;;;4.40;;
7773;SDS011;3931;42.260;23.116;2022-10-31T04:38:08;14.70;;;4.30;;
7773;SDS011;3931;42.260;23.116;2022-10-31T04:40:35;9.20;;;4.23;;
7773;SDS011;3931;42.260;23.116;2022-10-31T04:43:01;23.17;;;11.30;;
7773;SDS011;3931;42.260;23.116;2022-10-31T04:45:27;17.87;;;5.20;;
7773;SDS011;3931;42.260;23.116;2022-10-31T04:47:54;12.47;;;4.73;;
7773;SDS011;3931;42.260;23.116;2022-10-31T04:50:20;14.00;;;4.17;;
7773;SDS011;3931;42.260;23.116;2022-10-31T04:52:46;10.73;;;4.80;;
7773;SDS011;3931;42.260;23.116;2022-10-31T04:55:12;16.87;;;4.23;;
7773;SDS011;3931;42.260;23.116;2022-10-31T04:57:43;10.93;;;4.77;;
7773;SDS011;3931;42.260;23.116;2022-10-31T05:00:10;7.80;;;4.60;;
7773;SDS011;3931;42.260;23.116;2022-10-31T05:02:44;18.33;;;4.83;;
7773;SDS011;3931;42.260;23.116;2022-10-31T05:05:11;11.27;;;4.50;;
7773;SDS011;3931;42.260;23.116;2022-10-31T05:07:38;12.13;;;5.07;;
7773;SDS011;3931;42.260;23.116;2022-10-31T05:10:06;14.60;;;4.17;;
7773;SDS011;3931;42.260;23.116;2022-10-31T05:12:32;12.20;;;4.33;;
7773;SDS011;3931;42.260;23.116;2022-10-31T05:14:59;5.90;;;3.90;;
7773;SDS011;3931;42.260;23.116;2022-10-31T05:17:25;10.77;;;4.47;;
7773;SDS011;3931;42.260;23.116;2022-10-31T05:19:51;9.13;;;4.37;;
7773;SDS011;3931;42.260;23.116;2022-10-31T05:22:17;14.80;;;5.40;;
7773;SDS011;3931;42.260;23.116;2022-10-31T05:24:43;10.60;;;4.63;;
7773;SDS011;3931;42.260;23.116;2022-10-31T05:27:09;24.03;;;10.03;;
7773;SDS011;3931;42.260;23.116;2022-10-31T05:29:35;19.93;;;5.10;;
7773;SDS011;3931;42.260;23.116;2022-10-31T05:32:02;9.13;;;4.40;;
7773;SDS011;3931;42.260;23.116;2022-10-31T05:34:28;12.27;;;5.00;;
7773;SDS011;3931;42.260;23.116;2022-10-31T05:36:54;8.87;;;4.80;;
7773;SDS011;3931;42.260;23.116;2022-10-31T05:39:20;7.00;;;4.10;;
7773;SDS011;3931;42.260;23.116;2022-10-31T05:41:46;9.33;;;4.33;;
7773;SDS011;3931;42.260;23.116;2022-10-31T05:44:12;12.40;;;4.90;;
7773;SDS011;3931;42.260;23.116;2022-10-31T05:46:38;17.20;;;4.23;;
7773;SDS011;3931;42.260;23.116;2022-10-31T05:49:05;9.87;;;4.40;;
7773;SDS011;3931;42.260;23.116;2022-10-31T05:51:31;15.70;;;4.80;;
7773;SDS011;3931;42.260;23.116;2022-10-31T05:53:57;16.50;;;4.90;;
7773;SDS011;3931;42.260;23.116;2022-10-31T05:56:23;10.50;;;4.47;;
7773;SDS011;3931;42.260;23.116;2022-10-31T05:58:49;8.63;;;4.47;;
7773;SDS011;3931;42.260;23.116;2022-10-31T06:01:15;11.83;;;4.70;;
7773;SDS011;3931;42.260;23.116;2022-10-31T06:03:41;15.40;;;5.80;;
7773;SDS011;3931;42.260;23.116;2022-10-31T06:06:08;12.77;;;5.70;;
7773;SDS011;3931;42.260;23.116;2022-10-31T06:08:34;18.47;;;7.47;;
7773;SDS011;3931;42.260;23.116;2022-10-31T06:11:00;41.87;;;14.20;;
7773;SDS011;3931;42.260;23.116;2022-10-31T06:13:27;42.97;;;15.40;;
7773;SDS011;3931;42.260;23.116;2022-10-31T06:15:53;33.30;;;11.93;;
7773;SDS011;3931;42.260;23.116;2022-10-31T06:18:19;31.30;;;12.13;;
7773;SDS011;3931;42.260;23.116;2022-10-31T06:20:45;26.10;;;8.60;;
7773;SDS011;3931;42.260;23.116;2022-10-31T06:23:12;25.57;;;8.00;;
7773;SDS011;3931;42.260;23.116;2022-10-31T06:25:38;13.57;;;5.93;;
7773;SDS011;3931;42.260;23.116;2022-10-31T06:28:04;11.33;;;6.10;;
7773;SDS011;3931;42.260;23.116;2022-10-31T06:30:30;11.10;;;6.67;;
7773;SDS011;3931;42.260;23.116;2022-10-31T06:33:01;21.13;;;10.17;;
7773;SDS011;3931;42.260;23.116;2022-10-31T06:35:27;13.23;;;5.43;;
7773;SDS011;3931;42.260;23.116;2022-10-31T06:37:53;9.10;;;5.20;;
7773;SDS011;3931;42.260;23.116;2022-10-31T06:40:20;11.80;;;4.60;;
7773;SDS011;3931;42.260;23.116;2022-10-31T06:42:47;12.60;;;5.10;;
7773;SDS011;3931;42.260;23.116;2022-10-31T06:45:13;15.00;;;5.07;;
7773;SDS011;3931;42.260;23.116;2022-10-31T06:47:39;10.73;;;5.57;;
7773;SDS011;3931;42.260;23.116;2022-10-31T06:50:05;16.90;;;6.70;;
7773;SDS011;3931;42.260;23.116;2022-10-31T06:52:32;15.13;;;5.60;;
7773;SDS011;3931;42.260;23.116;2022-10-31T06:54:58;19.00;;;4.60;;
7773;SDS011;3931;42.260;23.116;2022-10-31T06:57:25;10.33;;;4.57;;
7773;SDS011;3931;42.260;23.116;2022-10-31T06:59:51;15.23;;;5.07;;
7773;SDS011;3931;42.260;23.116;2022-10-31T07:02:17;18.50;;;4.20;;
7773;SDS011;3931;42.260;23.116;2022-10-31T07:04:43;13.20;;;4.73;;
7773;SDS011;3931;42.260;23.116;2022-10-31T07:07:09;19.67;;;4.20;;
7773;SDS011;3931;42.260;23.116;2022-10-31T07:09:35;9.60;;;4.40;;
7773;SDS011;3931;42.260;23.116;2022-10-31T07:12:01;17.07;;;4.53;;
7773;SDS011;3931;42.260;23.116;2022-10-31T07:14:28;13.20;;;3.93;;
7773;SDS011;3931;42.260;23.116;2022-10-31T07:16:54;8.70;;;4.67;;
7773;SDS011;3931;42.260;23.116;2022-10-31T07:19:20;9.17;;;3.70;;
7773;SDS011;3931;42.260;23.116;2022-10-31T07:21:46;10.13;;;5.10;;
7773;SDS011;3931;42.260;23.116;2022-10-31T07:24:12;21.43;;;4.63;;
7773;SDS011;3931;42.260;23.116;2022-10-31T07:26:38;12.53;;;4.27;;
7773;SDS011;3931;42.260;23.116;2022-10-31T07:29:04;12.53;;;5.00;;
7773;SDS011;3931;42.260;23.116;2022-10-31T07:31:31;8.27;;;4.47;;
7773;SDS011;3931;42.260;23.116;2022-10-31T07:33:57;17.00;;;4.50;;
7773;SDS011;3931;42.260;23.116;2022-10-31T07:36:23;19.97;;;4.93;;
7773;SDS011;3931;42.260;23.116;2022-10-31T07:38:49;22.93;;;5.23;;
7773;SDS011;3931;42.260;23.116;2022-10-31T07:41:15;17.57;;;4.73;;
7773;SDS011;3931;42.260;23.116;2022-10-31T07:43:41;19.87;;;6.20;;
7773;SDS011;3931;42.260;23.116;2022-10-31T07:46:08;12.63;;;6.43;;
7773;SDS011;3931;42.260;23.116;2022-10-31T07:48:34;20.30;;;5.10;;
7773;SDS011;3931;42.260;23.116;2022-10-31T07:51:00;9.63;;;4.53;;
7773;SDS011;3931;42.260;23.116;2022-10-31T07:53:26;12.80;;;4.53;;
7773;SDS011;3931;42.260;23.116;2022-10-31T07:55:52;14.47;;;4.37;;
7773;SDS011;3931;42.260;23.116;2022-10-31T07:58:19;16.20;;;4.20;;
7773;SDS011;3931;42.260;23.116;2022-10-31T08:00:45;13.83;;;3.80;;
7773;SDS011;3931;42.260;23.116;2022-10-31T08:03:13;12.37;;;4.60;;
7773;SDS011;3931;42.260;23.116;2022-10-31T08:05:41;7.47;;;3.40;;
7773;SDS011;3931;42.260;23.116;2022-10-31T08:08:09;19.87;;;6.47;;
7773;SDS011;3931;42.260;23.116;2022-10-31T08:10:36;16.63;;;7.40;;
7773;SDS011;3931;42.260;23.116;2022-10-31T08:13:02;12.13;;;4.33;;
7773;SDS011;3931;42.260;23.116;2022-10-31T08:15:30;8.53;;;4.10;;
7773;SDS011;3931;42.260;23.116;2022-10-31T08:17:56;19.83;;;6.50;;
7773;SDS011;3931;42.260;23.116;2022-10-31T08:20:23;18.67;;;8.93;;
7773;SDS011;3931;42.260;23.116;2022-10-31T08:22:57;11.30;;;4.30;;
7773;SDS011;3931;42.260;23.116;2022-10-31T08:25:24;12.57;;;4.40;;
7773;SDS011;3931;42.260;23.116;2022-10-31T08:27:51;12.03;;;4.20;;
7773;SDS011;3931;42.260;23.116;2022-10-31T08:30:17;26.17;;;14.13;;
7773;SDS011;3931;42.260;23.116;2022-10-31T08:32:44;16.83;;;11.40;;
7773;SDS011;3931;42.260;23.116;2022-10-31T08:35:10;54.20;;;27.10;;
7773;SDS011;3931;42.260;23.116;2022-10-31T08:37:36;20.20;;;10.10;;
7773;SDS011;3931;42.260;23.116;2022-10-31T08:40:03;29.67;;;21.03;;
7773;SDS011;3931;42.260;23.116;2022-10-31T08:42:31;12.67;;;6.07;;
7773;SDS011;3931;42.260;23.116;2022-10-31T08:44:57;16.40;;;8.73;;
7773;SDS011;3931;42.260;23.116;2022-10-31T08:47:23;19.47;;;5.40;;
7773;SDS011;3931;42.260;23.116;2022-10-31T08:49:49;17.03;;;7.23;;
7773;SDS011;3931;42.260;23.116;2022-10-31T08:52:16;26.40;;;11.57;;
7773;SDS011;3931;42.260;23.116;2022-10-31T08:54:42;10.23;;;4.53;;
7773;SDS011;3931;42.260;23.116;2022-10-31T08:57:08;23.47;;;9.33;;
7773;SDS011;3931;42.260;23.116;2022-10-31T08:59:34;12.97;;;7.07;;
7773;SDS011;3931;42.260;23.116;2022-10-31T09:02:00;29.30;;;19.13;;
7773;SDS011;3931;42.260;23.116;2022-10-31T09:04:26;29.57;;;16.73;;
7773;SDS011;3931;42.260;23.116;2022-10-31T09:06:52;23.90;;;15.30;;
7773;SDS011;3931;42.260;23.116;2022-10-31T09:09:19;25.83;;;17.23;;
7773;SDS011;3931;42.260;23.116;2022-10-31T09:11:45;24.53;;;11.07;;
7773;SDS011;3931;42.260;23.116;2022-10-31T09:14:11;15.90;;;10.70;;
7773;SDS011;3931;42.260;23.116;2022-10-31T09:16:37;29.70;;;17.40;;
7773;SDS011;3931;42.260;23.116;2022-10-31T09:19:04;29.10;;;13.20;;
7773;SDS011;3931;42.260;23.116;2022-10-31T09:21:30;21.90;;;11.10;;
7773;SDS011;3931;42.260;23.116;2022-10-31T09:23:56;17.90;;;8.83;;
7773;SDS011;3931;42.260;23.116;2022-10-31T09:26:22;17.83;;;12.03;;
7773;SDS011;3931;42.260;23.116;2022-10-31T09:28:48;17.37;;;8.57;;
7773;SDS011;3931;42.260;23.116;2022-10-31T09:31:15;23.63;;;13.70;;
7773;SDS011;3931;42.260;23.116;2022-10-31T09:33:41;27.77;;;17.20;;
7773;SDS011;3931;42.260;23.116;2022-10-31T09:36:07;14.48;;;7.97;;
7773;SDS011;3931;42.260;23.116;2022-10-31T09:38:33;10.17;;;3.90;;
7773;SDS011;3931;42.260;23.116;2022-10-31T09:41:01;7.80;;;3.60;;
7773;SDS011;3931;42.260;23.116;2022-10-31T09:43:35;18.63;;;5.97;;
7773;SDS011;3931;42.260;23.116;2022-10-31T09:46:10;31.10;;;12.23;;
7773;SDS011;3931;42.260;23.116;2022-10-31T09:48:50;16.27;;;6.10;;
7773;SDS011;3931;42.260;23.116;2022-10-31T09:51:28;12.77;;;4.03;;
7773;SDS011;3931;42.260;23.116;2022-10-31T09:53:59;12.23;;;4.07;;
7773;SDS011;3931;42.260;23.116;2022-10-31T09:56:30;18.37;;;8.97;;
7773;SDS011;3931;42.260;23.116;2022-10-31T09:58:58;14.20;;;7.40;;
7773;SDS011;3931;42.260;23.116;2022-10-31T10:01:29;6.70;;;3.47;;
7773;SDS011;3931;42.260;23.116;2022-10-31T10:04:01;6.20;;;3.08;;
7773;SDS011;3931;42.260;23.116;2022-10-31T10:06:32;17.13;;;2.90;;
7773;SDS011;3931;42.260;23.116;2022-10-31T10:09:01;15.90;;;5.67;;
7773;SDS011;3931;42.260;23.116;2022-10-31T10:11:32;19.57;;;10.60;;
7773;SDS011;3931;42.260;23.116;2022-10-31T10:14:14;20.23;;;6.00;;
7773;SDS011;3931;42.260;23.116;2022-10-31T10:16:58;23.43;;;7.33;;
7773;SDS011;3931;42.260;23.116;2022-10-31T10:19:42;16.13;;;8.67;;
7773;SDS011;3931;42.260;23.116;2022-10-31T10:22:23;20.23;;;8.80;;
7773;SDS011;3931;42.260;23.116;2022-10-31T10:25:01;18.20;;;8.93;;
7773;SDS011;3931;42.260;23.116;2022-10-31T10:27:41;29.10;;;9.27;;
7773;SDS011;3931;42.260;23.116;2022-10-31T10:30:13;17.42;;;7.40;;
7773;SDS011;3931;42.260;23.116;2022-10-31T10:32:43;7.70;;;2.88;;
7773;SDS011;3931;42.260;23.116;2022-10-31T10:35:17;8.27;;;4.10;;
7773;SDS011;3931;42.260;23.116;2022-10-31T10:37:48;13.38;;;6.75;;
7773;SDS011;3931;42.260;23.116;2022-10-31T10:40:18;10.48;;;8.82;;
7773;SDS011;3931;42.260;23.116;2022-10-31T10:42:50;11.20;;;3.20;;
7773;SDS011;3931;42.260;23.116;2022-10-31T10:45:39;10.65;;;3.67;;
7773;SDS011;3931;42.260;23.116;2022-10-31T10:48:29;7.28;;;2.97;;
7773;SDS011;3931;42.260;23.116;2022-10-31T10:51:03;10.20;;;5.30;;
7773;SDS011;3931;42.260;23.116;2022-10-31T10:53:39;13.83;;;4.27;;
7773;SDS011;3931;42.260;23.116;2022-10-31T10:56:29;13.87;;;3.60;;
7773;SDS011;3931;42.260;23.116;2022-10-31T10:59:06;6.80;;;3.10;;
7773;SDS011;3931;42.260;23.116;2022-10-31T11:01:36;11.30;;;4.30;;
7773;SDS011;3931;42.260;23.116;2022-10-31T11:04:07;21.37;;;4.90;;
7773;SDS011;3931;42.260;23.116;2022-10-31T11:06:58;10.10;;;3.57;;
7773;SDS011;3931;42.260;23.116;2022-10-31T11:09:25;27.27;;;4.00;;
7773;SDS011;3931;42.260;23.116;2022-10-31T11:11:51;8.03;;;3.00;;
7773;SDS011;3931;42.260;23.116;2022-10-31T11:14:19;14.00;;;8.10;;
7773;SDS011;3931;42.260;23.116;2022-10-31T11:16:46;14.13;;;4.60;;
7773;SDS011;3931;42.260;23.116;2022-10-31T11:19:16;10.63;;;3.27;;
7773;SDS011;3931;42.260;23.116;2022-10-31T11:21:44;6.70;;;3.40;;
7773;SDS011;3931;42.260;23.116;2022-10-31T11:24:13;17.57;;;3.57;;
7773;SDS011;3931;42.260;23.116;2022-10-31T11:26:42;8.50;;;3.70;;
7773;SDS011;3931;42.260;23.116;2022-10-31T11:29:12;15.63;;;4.30;;
7773;SDS011;3931;42.260;23.116;2022-10-31T11:31:40;12.10;;;2.57;;
7773;SDS011;3931;42.260;23.116;2022-10-31T11:34:07;9.53;;;3.10;;
7773;SDS011;3931;42.260;23.116;2022-10-31T11:36:42;15.37;;;2.60;;
7773;SDS011;3931;42.260;23.116;2022-10-31T11:39:13;18.00;;;2.83;;
7773;SDS011;3931;42.260;23.116;2022-10-31T11:41:42;23.17;;;3.00;;
7773;SDS011;3931;42.260;23.116;2022-10-31T11:44:12;10.40;;;2.43;;
7773;SDS011;3931;42.260;23.116;2022-10-31T11:46:42;20.20;;;3.50;;
7773;SDS011;3931;42.260;23.116;2022-10-31T11:49:13;8.80;;;2.33;;
7773;SDS011;3931;42.260;23.116;2022-10-31T11:51:46;15.27;;;4.13;;
7773;SDS011;3931;42.260;23.116;2022-10-31T11:54:18;11.93;;;2.30;;
7773;SDS011;3931;42.260;23.116;2022-10-31T11:56:48;11.13;;;2.67;;
7773;SDS011;3931;42.260;23.116;2022-10-31T11:59:17;10.23;;;2.67;;
7773;SDS011;3931;42.260;23.116;2022-10-31T12:01:47;8.43;;;3.30;;
7773;SDS011;3931;42.260;23.116;2022-10-31T12:04:14;5.93;;;2.70;;
7773;SDS011;3931;42.260;23.116;2022-10-31T12:06:42;17.27;;;2.33;;
7773;SDS011;3931;42.260;23.116;2022-10-31T12:09:16;11.00;;;2.20;;
7773;SDS011;3931;42.260;23.116;2022-10-31T12:11:48;9.60;;;3.60;;
7773;SDS011;3931;42.260;23.116;2022-10-31T12:14:37;9.63;;;2.80;;
7773;SDS011;3931;42.260;23.116;2022-10-31T12:17:11;27.77;;;2.87;;
7773;SDS011;3931;42.260;23.116;2022-10-31T12:19:42;10.90;;;2.73;;
7773;SDS011;3931;42.260;23.116;2022-10-31T12:22:16;13.70;;;2.83;;
7773;SDS011;3931;42.260;23.116;2022-10-31T12:27:49;15.40;;;2.87;;
7773;SDS011;3931;42.260;23.116;2022-10-31T12:30:27;8.00;;;2.37;;
7773;SDS011;3931;42.260;23.116;2022-10-31T12:35:59;10.13;;;2.10;;
7773;SDS011;3931;42.260;23.116;2022-10-31T12:38:58;24.50;;;2.90;;
7773;SDS011;3931;42.260;23.116;2022-10-31T12:41:46;7.40;;;2.60;;
7773;SDS011;3931;42.260;23.116;2022-10-31T12:44:32;9.30;;;2.60;;
7773;SDS011;3931;42.260;23.116;2022-10-31T12:50:18;9.97;;;2.53;;
7773;SDS011;3931;42.260;23.116;2022-10-31T12:52:58;10.17;;;2.03;;
7773;SDS011;3931;42.260;23.116;2022-10-31T12:55:43;9.60;;;2.73;;
7773;SDS011;3931;42.260;23.116;2022-10-31T12:58:20;22.07;;;2.47;;
7773;SDS011;3931;42.260;23.116;2022-10-31T13:00:50;5.73;;;2.20;;
7773;SDS011;3931;42.260;23.116;2022-10-31T13:03:25;15.00;;;2.30;;
7773;SDS011;3931;42.260;23.116;2022-10-31T13:05:54;6.53;;;2.40;;
7773;SDS011;3931;42.260;23.116;2022-10-31T13:08:24;2.80;;;2.00;;
7773;SDS011;3931;42.260;23.116;2022-10-31T13:10:59;8.53;;;2.10;;
7773;SDS011;3931;42.260;23.116;2022-10-31T13:13:33;6.60;;;2.53;;
7773;SDS011;3931;42.260;23.116;2022-10-31T13:16:07;17.50;;;3.20;;
7773;SDS011;3931;42.260;23.116;2022-10-31T13:18:39;16.80;;;2.60;;
7773;SDS011;3931;42.260;23.116;2022-10-31T13:21:10;6.43;;;2.90;;
7773;SDS011;3931;42.260;23.116;2022-10-31T13:23:41;13.30;;;2.40;;
7773;SDS011;3931;42.260;23.116;2022-10-31T13:26:10;13.03;;;3.13;;
7773;SDS011;3931;42.260;23.116;2022-10-31T13:28:40;9.30;;;2.63;;
7773;SDS011;3931;42.260;23.116;2022-10-31T13:31:11;4.90;;;2.00;;
7773;SDS011;3931;42.260;23.116;2022-10-31T13:33:38;7.83;;;2.20;;
7773;SDS011;3931;42.260;23.116;2022-10-31T13:36:12;8.83;;;2.10;;
7773;SDS011;3931;42.260;23.116;2022-10-31T13:38:48;6.40;;;2.47;;
7773;SDS011;3931;42.260;23.116;2022-10-31T13:41:22;9.60;;;2.53;;
7773;SDS011;3931;42.260;23.116;2022-10-31T13:44:01;7.93;;;2.70;;
7773;SDS011;3931;42.260;23.116;2022-10-31T13:46:35;9.90;;;2.60;;
7773;SDS011;3931;42.260;23.116;2022-10-31T13:49:02;9.27;;;2.20;;
7773;SDS011;3931;42.260;23.116;2022-10-31T13:51:30;11.07;;;2.63;;
7773;SDS011;3931;42.260;23.116;2022-10-31T13:53:58;9.17;;;2.27;;
7773;SDS011;3931;42.260;23.116;2022-10-31T13:56:26;7.10;;;2.40;;
7773;SDS011;3931;42.260;23.116;2022-10-31T13:59:12;7.13;;;2.00;;
7773;SDS011;3931;42.260;23.116;2022-10-31T14:01:51;8.17;;;2.03;;
7773;SDS011;3931;42.260;23.116;2022-10-31T14:04:21;7.90;;;2.43;;
7773;SDS011;3931;42.260;23.116;2022-10-31T14:06:54;7.93;;;2.33;;
7773;SDS011;3931;42.260;23.116;2022-10-31T14:09:26;14.97;;;2.20;;
7773;SDS011;3931;42.260;23.116;2022-10-31T14:11:55;8.30;;;2.17;;
7773;SDS011;3931;42.260;23.116;2022-10-31T14:14:23;6.90;;;2.87;;
7773;SDS011;3931;42.260;23.116;2022-10-31T14:16:56;8.10;;;2.27;;
7773;SDS011;3931;42.260;23.116;2022-10-31T14:19:23;9.77;;;1.97;;
7773;SDS011;3931;42.260;23.116;2022-10-31T14:21:51;5.27;;;2.40;;
7773;SDS011;3931;42.260;23.116;2022-10-31T14:24:30;17.40;;;3.03;;
7773;SDS011;3931;42.260;23.116;2022-10-31T14:27:00;9.23;;;2.80;;
7773;SDS011;3931;42.260;23.116;2022-10-31T14:29:28;4.70;;;2.13;;
7773;SDS011;3931;42.260;23.116;2022-10-31T14:31:57;7.47;;;2.87;;
7773;SDS011;3931;42.260;23.116;2022-10-31T14:34:27;10.07;;;3.20;;
7773;SDS011;3931;42.260;23.116;2022-10-31T14:37:07;6.83;;;3.20;;
7773;SDS011;3931;42.260;23.116;2022-10-31T14:39:49;6.57;;;2.40;;
7773;SDS011;3931;42.260;23.116;2022-10-31T14:42:30;15.03;;;3.47;;
7773;SDS011;3931;42.260;23.116;2022-10-31T14:45:15;7.43;;;3.20;;
7773;SDS011;3931;42.260;23.116;2022-10-31T14:47:53;9.63;;;2.97;;
7773;SDS011;3931;42.260;23.116;2022-10-31T14:50:41;9.90;;;3.50;;
7773;SDS011;3931;42.260;23.116;2022-10-31T14:53:12;10.37;;;3.00;;
7773;SDS011;3931;42.260;23.116;2022-10-31T14:55:43;9.97;;;3.10;;
7773;SDS011;3931;42.260;23.116;2022-10-31T14:58:33;14.53;;;5.13;;
7773;SDS011;3931;42.260;23.116;2022-10-31T15:01:03;13.50;;;4.17;;
7773;SDS011;3931;42.260;23.116;2022-10-31T15:03:30;13.37;;;3.73;;
7773;SDS011;3931;42.260;23.116;2022-10-31T15:06:00;15.10;;;4.23;;
7773;SDS011;3931;42.260;23.116;2022-10-31T15:08:32;16.37;;;3.73;;
7773;SDS011;3931;42.260;23.116;2022-10-31T15:11:08;12.57;;;3.50;;
7773;SDS011;3931;42.260;23.116;2022-10-31T15:13:41;12.47;;;3.23;;
7773;SDS011;3931;42.260;23.116;2022-10-31T15:16:09;16.00;;;4.60;;
7773;SDS011;3931;42.260;23.116;2022-10-31T15:18:37;15.10;;;4.50;;
7773;SDS011;3931;42.260;23.116;2022-10-31T15:21:11;16.63;;;3.33;;